Time;durP1;ratioP1;P1;durP2;ratioP2;P2;SDS_P1;SDS_P2;PMS_P1;PMS_P2;Temp;Humidity;BMP_temperature;BMP_pressure;BME280_temperature;BME280_humidity;BME280_pressure;Samples;Min_cycle;Max_cycle;Signal;HPM_P1;HPM_P2
2021/12/06 00:01:31;;;;;;;0.30;0.30;;;;;;;;;;5049454;28;20036;-37
2021/12/06 00:04:09;;;;;;;0.35;0.35;;;;;;;;;;5055030;28;20091;-37
2021/12/06 00:06:37;;;;;;;0.30;0.30;;;;;;;;;;5054711;28;20031;-37
2021/12/06 00:09:09;;;;;;;0.32;0.20;;;;;;;;;;5055122;28;20032;-37
2021/12/06 00:11:35;;;;;;;0.40;0.30;;;;;;;;;;5054788;28;20090;-37
2021/12/06 00:14:02;;;;;;;0.68;0.50;;;;;;;;;;5054501;28;20494;-37
2021/12/06 00:16:27;;;;;;;0.45;0.30;;;;;;;;;;5054653;28;20029;-37
2021/12/06 00:18:53;;;;;;;0.50;0.50;;;;;;;;;;5053128;28;20483;-37
2021/12/06 00:21:20;;;;;;;0.55;0.55;;;;;;;;;;5054108;28;20036;-37
2021/12/06 00:23:45;;;;;;;0.35;0.35;;;;;;;;;;5054319;28;20020;-37
2021/12/06 00:26:11;;;;;;;0.32;0.32;;;;;;;;;;5054181;28;20033;-37
2021/12/06 00:28:37;;;;;;;0.40;0.40;;;;;;;;;;5054585;28;20145;-37
2021/12/06 00:31:03;;;;;;;0.60;0.60;;;;;;;;;;5052915;28;20028;-37
2021/12/06 00:33:29;;;;;;;1.00;0.45;;;;;;;;;;5054366;28;20021;-36
2021/12/06 00:36:02;;;;;;;0.52;0.52;;;;;;;;;;5052876;28;20171;-37
2021/12/06 00:38:28;;;;;;;2.00;0.30;;;;;;;;;;5053936;28;20045;-37
2021/12/06 00:40:53;;;;;;;0.45;0.45;;;;;;;;;;5054025;28;20040;-37
2021/12/06 00:43:19;;;;;;;0.35;0.35;;;;;;;;;;5053951;28;20108;-37
2021/12/06 00:45:44;;;;;;;0.57;0.30;;;;;;;;;;5054163;28;20032;-38
2021/12/06 00:48:10;;;;;;;0.40;0.40;;;;;;;;;;5053809;28;20028;-37
2021/12/06 00:50:38;;;;;;;0.30;0.30;;;;;;;;;;5053861;28;20025;-37
2021/12/06 00:53:04;;;;;;;0.55;0.55;;;;;;;;;;5054034;28;20059;-37
2021/12/06 00:55:30;;;;;;;0.40;0.40;;;;;;;;;;5052438;28;20475;-38
2021/12/06 00:57:55;;;;;;;0.35;0.35;;;;;;;;;;5052457;28;20166;-37
2021/12/06 01:00:25;;;;;;;0.40;0.40;;;;;;;;;;5052164;28;20024;-37
2021/12/06 01:02:52;;;;;;;0.40;0.40;;;;;;;;;;5053527;28;20052;-38
2021/12/06 01:05:22;;;;;;;0.32;0.32;;;;;;;;;;5052211;28;20025;-37
2021/12/06 01:07:47;;;;;;;0.30;0.30;;;;;;;;;;5053757;28;20037;-37
2021/12/06 01:10:12;;;;;;;0.20;0.20;;;;;;;;;;5052160;28;20066;-37
2021/12/06 01:12:38;;;;;;;0.40;0.40;;;;;;;;;;5053740;28;20472;-37
2021/12/06 01:15:05;;;;;;;0.30;0.30;;;;;;;;;;5052431;28;20079;-37
2021/12/06 01:17:30;;;;;;;0.40;0.40;;;;;;;;;;5052015;28;20025;-37
2021/12/06 01:19:56;;;;;;;0.30;0.30;;;;;;;;;;5051991;28;20079;-37
2021/12/06 01:22:28;;;;;;;0.47;0.47;;;;;;;;;;5053314;28;20419;-37
2021/12/06 01:25:01;;;;;;;0.40;0.40;;;;;;;;;;5053258;28;20021;-37
2021/12/06 01:28:11;;;;;;;0.93;0.57;;;;;;;;;;5053301;28;20028;-37
2021/12/06 01:40:53;;;;;;;0.20;0.20;;;;;;;;;;5051491;28;20098;-38
2021/12/06 01:43:18;;;;;;;2.05;0.50;;;;;;;;;;5051442;28;20029;-37
2021/12/06 01:45:44;;;;;;;5.70;0.63;;;;;;;;;;5051496;28;20449;-37
2021/12/06 01:48:10;;;;;;;2.92;0.80;;;;;;;;;;5051363;28;20025;-37
2021/12/06 01:50:37;;;;;;;1.02;0.90;;;;;;;;;;5051357;28;20039;-37
2021/12/06 01:53:03;;;;;;;0.40;0.40;;;;;;;;;;5051430;28;20040;-37
2021/12/06 01:55:32;;;;;;;0.90;0.57;;;;;;;;;;5051255;28;20029;-37
2021/12/06 01:57:59;;;;;;;0.22;0.22;;;;;;;;;;5052504;28;20066;-37
2021/12/06 02:00:35;;;;;;;0.35;0.32;;;;;;;;;;5051055;28;20542;-37
2021/12/06 02:03:07;;;;;;;0.30;0.30;;;;;;;;;;5052401;28;20043;-37
2021/12/06 02:05:37;;;;;;;0.40;0.40;;;;;;;;;;5051145;28;20024;-37
2021/12/06 02:08:05;;;;;;;0.70;0.60;;;;;;;;;;5051042;28;20025;-37
2021/12/06 02:10:31;;;;;;;0.40;0.40;;;;;;;;;;5050890;28;20052;-37
2021/12/06 02:12:58;;;;;;;0.60;0.50;;;;;;;;;;5051027;28;20036;-37
2021/12/06 02:15:39;;;;;;;0.30;0.30;;;;;;;;;;5050837;28;20024;-37
2021/12/06 02:18:12;;;;;;;0.40;0.40;;;;;;;;;;5050874;28;20166;-37
2021/12/06 02:20:46;;;;;;;0.30;0.30;;;;;;;;;;5050907;28;20041;-37
2021/12/06 02:23:12;;;;;;;0.40;0.40;;;;;;;;;;5052395;28;20418;-38
2021/12/06 02:25:37;;;;;;;0.70;0.70;;;;;;;;;;5051710;28;20016;-37
2021/12/06 02:28:02;;;;;;;0.40;0.40;;;;;;;;;;5052330;28;20029;-37
2021/12/06 02:30:28;;;;;;;0.65;0.65;;;;;;;;;;5050528;28;20102;-37
2021/12/06 02:32:54;;;;;;;0.40;0.40;;;;;;;;;;5050594;28;20119;-37
2021/12/06 02:35:21;;;;;;;0.40;0.40;;;;;;;;;;5050561;28;20025;-37
2021/12/06 02:37:49;;;;;;;0.65;0.65;;;;;;;;;;5050454;28;20525;-37
2021/12/06 02:40:21;;;;;;;0.88;0.70;;;;;;;;;;5051715;28;20438;-37
2021/12/06 02:42:47;;;;;;;0.53;0.53;;;;;;;;;;5052000;28;20041;-37
2021/12/06 02:45:13;;;;;;;0.38;0.38;;;;;;;;;;5050344;28;20308;-37
2021/12/06 02:47:39;;;;;;;0.73;0.68;;;;;;;;;;5050409;28;20387;-37
2021/12/06 02:50:08;;;;;;;0.45;0.40;;;;;;;;;;5050364;28;20071;-37
2021/12/06 02:52:34;;;;;;;0.38;0.38;;;;;;;;;;5050203;28;20497;-37
2021/12/06 02:55:01;;;;;;;0.70;0.50;;;;;;;;;;5050527;28;20024;-37
2021/12/06 02:57:36;;;;;;;0.60;0.60;;;;;;;;;;5050206;28;20048;-37
2021/12/06 03:00:10;;;;;;;0.47;0.47;;;;;;;;;;5050219;28;20037;-37
2021/12/06 03:02:36;;;;;;;0.45;0.40;;;;;;;;;;5050125;28;20037;-37
2021/12/06 03:05:03;;;;;;;0.55;0.52;;;;;;;;;;5050125;28;20024;-37
2021/12/06 03:07:29;;;;;;;4.07;0.73;;;;;;;;;;5051628;28;20123;-37
2021/12/06 03:09:56;;;;;;;1.48;0.80;;;;;;;;;;5050054;28;20017;-37
2021/12/06 03:12:24;;;;;;;0.88;0.63;;;;;;;;;;5051309;28;20024;-37
2021/12/06 03:15:00;;;;;;;0.70;0.63;;;;;;;;;;5051266;28;20096;-39
2021/12/06 03:17:28;;;;;;;1.05;0.43;;;;;;;;;;5049927;28;20074;-37
2021/12/06 03:19:54;;;;;;;3.38;0.82;;;;;;;;;;5049954;28;20017;-37
2021/12/06 03:22:20;;;;;;;0.82;0.68;;;;;;;;;;5049734;28;20403;-37
2021/12/06 03:24:50;;;;;;;0.50;0.50;;;;;;;;;;5049908;28;20380;-37
2021/12/06 03:27:16;;;;;;;1.52;0.65;;;;;;;;;;5051167;28;20032;-37
2021/12/06 03:29:43;;;;;;;1.10;0.60;;;;;;;;;;5049801;28;20374;-37
2021/12/06 03:32:10;;;;;;;0.95;0.70;;;;;;;;;;5051202;28;20037;-37
2021/12/06 03:34:36;;;;;;;1.85;1.15;;;;;;;;;;5049794;28;20028;-37
2021/12/06 03:37:03;;;;;;;0.75;0.75;;;;;;;;;;5051897;28;20115;-37
2021/12/06 03:39:34;;;;;;;8.60;1.40;;;;;;;;;;5053672;28;20060;-37
2021/12/06 03:42:02;;;;;;;2.15;0.68;;;;;;;;;;5053804;28;20045;-37
2021/12/06 03:44:28;;;;;;;2.30;1.17;;;;;;;;;;5053727;28;20021;-37
2021/12/06 03:47:00;;;;;;;5.43;1.25;;;;;;;;;;5053842;28;20033;-36
2021/12/06 03:49:25;;;;;;;4.20;0.88;;;;;;;;;;5054716;28;20032;-37
2021/12/06 03:51:51;;;;;;;3.17;1.50;;;;;;;;;;5053621;28;20025;-37
2021/12/06 03:54:20;;;;;;;1.85;1.30;;;;;;;;;;5053623;28;20029;-37
2021/12/06 03:56:46;;;;;;;5.63;1.73;;;;;;;;;;5053493;28;20103;-37
2021/12/06 03:59:12;;;;;;;2.88;1.33;;;;;;;;;;5053503;28;20124;-37
2021/12/06 04:01:37;;;;;;;1.38;0.85;;;;;;;;;;5053390;28;20037;-36
2021/12/06 04:04:04;;;;;;;1.80;0.88;;;;;;;;;;5053394;28;20021;-36
2021/12/06 04:06:30;;;;;;;0.70;0.65;;;;;;;;;;5054631;28;20036;-38
2021/12/06 04:08:56;;;;;;;0.90;0.90;;;;;;;;;;5053398;28;20032;-37
2021/12/06 04:11:22;;;;;;;1.85;0.90;;;;;;;;;;5053161;28;20024;-37
2021/12/06 04:13:47;;;;;;;0.73;0.73;;;;;;;;;;5054624;28;20025;-37
2021/12/06 04:16:13;;;;;;;2.28;1.17;;;;;;;;;;5053138;28;20021;-37
2021/12/06 04:18:38;;;;;;;2.60;1.27;;;;;;;;;;5054440;28;20055;-37
2021/12/06 04:21:05;;;;;;;2.47;0.77;;;;;;;;;;5054623;28;20366;-37
2021/12/06 04:23:32;;;;;;;2.28;1.10;;;;;;;;;;5053100;28;20502;-37
2021/12/06 04:25:58;;;;;;;2.53;1.50;;;;;;;;;;5053056;28;20102;-37
2021/12/06 04:28:24;;;;;;;4.80;1.63;;;;;;;;;;5052926;28;20056;-37
2021/12/06 04:30:50;;;;;;;1.92;1.38;;;;;;;;;;5052919;28;20021;-37
2021/12/06 04:33:17;;;;;;;2.40;1.48;;;;;;;;;;5052853;28;20391;-37
2021/12/06 04:35:47;;;;;;;7.90;2.55;;;;;;;;;;5052933;28;20064;-37
2021/12/06 04:38:13;;;;;;;5.05;1.55;;;;;;;;;;5052556;28;20052;-37
2021/12/06 04:40:39;;;;;;;6.30;1.42;;;;;;;;;;5052749;28;20572;-37
2021/12/06 04:43:05;;;;;;;2.83;1.40;;;;;;;;;;5052714;28;20049;-37
2021/12/06 04:45:31;;;;;;;3.17;1.73;;;;;;;;;;5052633;28;20179;-36
2021/12/06 04:47:57;;;;;;;4.13;1.90;;;;;;;;;;5052492;28;20037;-37
2021/12/06 04:50:25;;;;;;;2.67;2.22;;;;;;;;;;5053776;28;20177;-37
2021/12/06 04:52:52;;;;;;;16.88;4.80;;;;;;;;;;5052515;28;20037;-37
2021/12/06 04:55:27;;;;;;;13.75;3.60;;;;;;;;;;5052385;28;20375;-37
2021/12/06 04:57:53;;;;;;;15.88;5.82;;;;;;;;;;5052456;28;20037;-37
2021/12/06 05:00:23;;;;;;;3.53;1.50;;;;;;;;;;5053680;28;20020;-37
2021/12/06 05:02:49;;;;;;;6.88;2.45;;;;;;;;;;5052212;28;20067;-37
2021/12/06 05:05:22;;;;;;;10.98;3.90;;;;;;;;;;5052281;28;20039;-37
2021/12/06 05:07:54;;;;;;;9.35;2.40;;;;;;;;;;5052317;28;20029;-38
2021/12/06 05:10:20;;;;;;;2.58;1.77;;;;;;;;;;5052089;28;20032;-37
2021/12/06 05:12:47;;;;;;;5.57;2.15;;;;;;;;;;5053554;28;20017;-37
2021/12/06 05:15:12;;;;;;;9.20;2.55;;;;;;;;;;5053265;28;20037;-36
2021/12/06 05:17:38;;;;;;;5.68;2.67;;;;;;;;;;5053366;28;20074;-37
2021/12/06 05:20:05;;;;;;;6.70;2.42;;;;;;;;;;5052016;28;20395;-37
2021/12/06 05:22:31;;;;;;;4.43;1.70;;;;;;;;;;5053114;28;20079;-37
2021/12/06 05:24:57;;;;;;;11.68;4.15;;;;;;;;;;5051982;28;20116;-37
2021/12/06 05:27:28;;;;;;;7.15;2.33;;;;;;;;;;5051852;28;20024;-37
2021/12/06 05:29:58;;;;;;;5.07;2.17;;;;;;;;;;5051804;28;20025;-37
2021/12/06 05:32:28;;;;;;;7.53;2.10;;;;;;;;;;5051696;28;20029;-37
2021/12/06 05:35:03;;;;;;;8.45;2.25;;;;;;;;;;5051731;28;20147;-37
2021/12/06 05:37:28;;;;;;;5.90;2.35;;;;;;;;;;5052844;28;20074;-37
2021/12/06 05:39:54;;;;;;;3.97;1.48;;;;;;;;;;5052739;28;20044;-37
2021/12/06 05:42:20;;;;;;;3.40;2.03;;;;;;;;;;5052762;28;20052;-37
2021/12/06 05:44:45;;;;;;;5.00;1.92;;;;;;;;;;5052783;28;20029;-37
2021/12/06 05:47:11;;;;;;;6.25;2.10;;;;;;;;;;5052843;28;20155;-37
2021/12/06 05:49:37;;;;;;;11.27;3.25;;;;;;;;;;5052934;28;20020;-37
2021/12/06 05:52:02;;;;;;;8.48;2.13;;;;;;;;;;5052949;28;20032;-37
2021/12/06 05:54:28;;;;;;;10.02;2.55;;;;;;;;;;5052584;28;20021;-37
2021/12/06 05:56:54;;;;;;;9.07;2.13;;;;;;;;;;5052877;28;20032;-36
2021/12/06 05:59:20;;;;;;;15.73;4.30;;;;;;;;;;5052233;28;20036;-37
2021/12/06 06:01:48;;;;;;;11.15;4.53;;;;;;;;;;5052503;28;20479;-37
2021/12/06 06:04:13;;;;;;;12.90;5.20;;;;;;;;;;5052707;28;20017;-37
2021/12/06 06:06:39;;;;;;;13.43;3.63;;;;;;;;;;5051142;28;20540;-37
2021/12/06 06:09:05;;;;;;;10.60;4.35;;;;;;;;;;5052344;28;20521;-37
2021/12/06 06:11:34;;;;;;;14.57;3.92;;;;;;;;;;5050970;28;20091;-37
2021/12/06 06:14:00;;;;;;;6.03;2.78;;;;;;;;;;5052540;28;20021;-37
2021/12/06 06:16:31;;;;;;;10.95;4.13;;;;;;;;;;5052209;28;20055;-37
2021/12/06 06:18:56;;;;;;;18.95;6.40;;;;;;;;;;5052154;28;20035;-37
2021/12/06 06:21:22;;;;;;;19.77;6.15;;;;;;;;;;5050700;28;20135;-36
2021/12/06 06:23:47;;;;;;;19.77;7.28;;;;;;;;;;5052382;28;20036;-37
2021/12/06 06:26:13;;;;;;;7.75;2.65;;;;;;;;;;5051883;28;20037;-37
2021/12/06 06:28:39;;;;;;;3.65;2.58;;;;;;;;;;5051996;28;20025;-36
2021/12/06 06:31:04;;;;;;;3.85;2.45;;;;;;;;;;5051954;28;20051;-37
2021/12/06 06:33:30;;;;;;;4.03;1.77;;;;;;;;;;5051848;28;20067;-37
2021/12/06 06:35:55;;;;;;;3.35;1.95;;;;;;;;;;5051853;28;20128;-37
2021/12/06 06:38:22;;;;;;;3.58;1.48;;;;;;;;;;5051807;28;20059;-37
2021/12/06 06:40:48;;;;;;;2.38;1.80;;;;;;;;;;5052097;28;20020;-37
2021/12/06 06:43:14;;;;;;;2.13;1.00;;;;;;;;;;5051886;28;20487;-37
2021/12/06 06:45:39;;;;;;;1.80;1.10;;;;;;;;;;5051982;28;20483;-36
2021/12/06 06:48:05;;;;;;;2.05;1.45;;;;;;;;;;5051551;28;20013;-36
2021/12/06 06:50:30;;;;;;;2.30;1.52;;;;;;;;;;5051535;28;20033;-37
2021/12/06 06:52:56;;;;;;;1.85;1.23;;;;;;;;;;5051974;28;20017;-37
2021/12/06 06:55:22;;;;;;;2.90;1.83;;;;;;;;;;5051484;28;20033;-37
2021/12/06 06:57:50;;;;;;;2.42;1.70;;;;;;;;;;5051581;28;20040;-38
2021/12/06 07:00:20;;;;;;;1.67;1.17;;;;;;;;;;5051520;28;20495;-37
2021/12/06 07:02:46;;;;;;;3.65;1.15;;;;;;;;;;5051310;28;20048;-38
2021/12/06 07:05:12;;;;;;;1.92;1.15;;;;;;;;;;5051752;28;20017;-37
2021/12/06 07:07:37;;;;;;;1.10;0.93;;;;;;;;;;5051359;28;20579;-37
2021/12/06 07:10:05;;;;;;;1.42;1.33;;;;;;;;;;5051265;28;20104;-37
2021/12/06 07:12:31;;;;;;;2.20;0.95;;;;;;;;;;5049093;28;20476;-37
2021/12/06 07:14:56;;;;;;;1.85;0.65;;;;;;;;;;5051339;28;20025;-37
2021/12/06 07:17:22;;;;;;;1.40;0.93;;;;;;;;;;5051205;28;20033;-37
2021/12/06 07:19:47;;;;;;;1.70;0.98;;;;;;;;;;5051242;28;20468;-37
2021/12/06 07:22:12;;;;;;;1.73;1.27;;;;;;;;;;5051507;28;20040;-37
2021/12/06 07:24:38;;;;;;;2.05;1.42;;;;;;;;;;5051354;28;20017;-37
2021/12/06 07:27:04;;;;;;;0.47;0.47;;;;;;;;;;5051490;28;20459;-37
2021/12/06 07:29:33;;;;;;;1.88;0.98;;;;;;;;;;5051025;28;20021;-37
2021/12/06 07:31:59;;;;;;;1.13;0.88;;;;;;;;;;5051074;28;20033;-38
2021/12/06 07:34:25;;;;;;;2.00;1.00;;;;;;;;;;5050850;28;20082;-37
2021/12/06 07:36:51;;;;;;;2.05;1.45;;;;;;;;;;5050900;28;20041;-37
2021/12/06 07:39:16;;;;;;;2.25;0.60;;;;;;;;;;5050827;28;20059;-36
2021/12/06 07:41:41;;;;;;;3.10;1.25;;;;;;;;;;5050906;28;20073;-36
2021/12/06 07:44:07;;;;;;;1.55;0.95;;;;;;;;;;5051366;28;20037;-36
2021/12/06 07:46:33;;;;;;;1.20;0.90;;;;;;;;;;5050862;28;20476;-37
2021/12/06 07:48:59;;;;;;;0.63;0.63;;;;;;;;;;5051246;28;20163;-37
2021/12/06 07:51:25;;;;;;;4.05;0.50;;;;;;;;;;5051122;28;20091;-37
2021/12/06 07:53:50;;;;;;;1.30;0.80;;;;;;;;;;5051223;28;20029;-37
2021/12/06 07:56:17;;;;;;;0.52;0.50;;;;;;;;;;5051143;28;20025;-37
2021/12/06 07:58:42;;;;;;;1.85;0.50;;;;;;;;;;5051177;28;20028;-37
2021/12/06 08:01:08;;;;;;;0.50;0.50;;;;;;;;;;5050838;28;20029;-37
2021/12/06 08:03:34;;;;;;;1.48;0.98;;;;;;;;;;5050849;28;20021;-37
2021/12/06 08:06:00;;;;;;;1.08;0.95;;;;;;;;;;5051130;28;20029;-37
2021/12/06 08:08:30;;;;;;;0.93;0.68;;;;;;;;;;5051082;28;20364;-36
2021/12/06 08:11:05;;;;;;;1.17;0.95;;;;;;;;;;5050779;28;20029;-37
2021/12/06 08:13:32;;;;;;;0.43;0.43;;;;;;;;;;5050706;28;20037;-36
2021/12/06 08:15:59;;;;;;;0.77;0.70;;;;;;;;;;5050793;28;20036;-37
2021/12/06 08:18:25;;;;;;;1.77;0.82;;;;;;;;;;5050685;28;20423;-37
2021/12/06 08:20:50;;;;;;;2.38;0.68;;;;;;;;;;5050568;28;20017;-37
2021/12/06 08:23:16;;;;;;;0.70;0.70;;;;;;;;;;5051999;28;20043;-37
2021/12/06 08:25:42;;;;;;;8.07;1.95;;;;;;;;;;5054656;28;20021;-37
2021/12/06 08:28:08;;;;;;;2.92;1.50;;;;;;;;;;5054229;28;20028;-37
2021/12/06 08:30:34;;;;;;;1.55;1.08;;;;;;;;;;5054395;28;20074;-37
2021/12/06 08:33:01;;;;;;;4.15;1.55;;;;;;;;;;5054238;28;20072;-37
2021/12/06 08:35:26;;;;;;;2.67;1.52;;;;;;;;;;5054298;28;20028;-37
2021/12/06 08:37:53;;;;;;;1.65;1.23;;;;;;;;;;5054043;28;20060;-37
2021/12/06 08:40:18;;;;;;;2.45;1.35;;;;;;;;;;5054047;28;20468;-38
2021/12/06 08:42:43;;;;;;;2.75;1.73;;;;;;;;;;5053870;28;20037;-37
2021/12/06 08:45:09;;;;;;;3.65;1.10;;;;;;;;;;5053963;28;20061;-37
2021/12/06 08:47:35;;;;;;;4.05;1.13;;;;;;;;;;5054135;28;20037;-37
2021/12/06 08:50:01;;;;;;;2.42;1.10;;;;;;;;;;5054157;28;20514;-37
2021/12/06 08:52:26;;;;;;;3.13;1.48;;;;;;;;;;5054146;28;20498;-37
2021/12/06 08:54:52;;;;;;;2.50;0.85;;;;;;;;;;5053837;28;20463;-37
2021/12/06 08:57:18;;;;;;;4.38;1.23;;;;;;;;;;5053678;28;20025;-37
2021/12/06 08:59:43;;;;;;;1.08;0.98;;;;;;;;;;5053979;28;20406;-37
2021/12/06 09:02:09;;;;;;;1.75;1.38;;;;;;;;;;5053967;28;20144;-37
2021/12/06 09:04:38;;;;;;;1.63;0.98;;;;;;;;;;5053531;28;20021;-36
2021/12/06 09:07:10;;;;;;;2.05;0.98;;;;;;;;;;5053593;28;20033;-40
2021/12/06 09:09:36;;;;;;;1.48;0.85;;;;;;;;;;5053468;28;20039;-37
2021/12/06 09:12:02;;;;;;;1.98;1.63;;;;;;;;;;5053506;28;20025;-36
2021/12/06 09:14:28;;;;;;;0.73;0.55;;;;;;;;;;5053333;28;20613;-38
2021/12/06 09:16:54;;;;;;;1.38;0.80;;;;;;;;;;5053398;28;20436;-37
2021/12/06 09:19:20;;;;;;;0.90;0.70;;;;;;;;;;5053239;28;20028;-38
2021/12/06 09:21:46;;;;;;;1.98;0.90;;;;;;;;;;5052074;28;20029;-36
2021/12/06 09:24:14;;;;;;;1.27;0.98;;;;;;;;;;5052007;28;20545;-37
2021/12/06 09:26:39;;;;;;;0.95;0.65;;;;;;;;;;5053437;28;20415;-37
2021/12/06 09:29:06;;;;;;;1.65;0.85;;;;;;;;;;5053144;28;20040;-37
2021/12/06 09:31:31;;;;;;;1.73;0.80;;;;;;;;;;5053303;28;20429;-37
2021/12/06 09:33:57;;;;;;;0.65;0.60;;;;;;;;;;5053046;28;20041;-36
2021/12/06 09:36:23;;;;;;;0.88;0.80;;;;;;;;;;5052623;28;20033;-37
2021/12/06 09:38:48;;;;;;;2.35;1.25;;;;;;;;;;5052707;28;20423;-37
2021/12/06 09:41:23;;;;;;;1.35;0.80;;;;;;;;;;5052928;28;20025;-37
2021/12/06 09:43:50;;;;;;;3.85;1.13;;;;;;;;;;5052836;28;20037;-38
2021/12/06 09:46:16;;;;;;;1.00;0.90;;;;;;;;;;5052894;28;20372;-37
2021/12/06 09:48:43;;;;;;;0.98;0.98;;;;;;;;;;5052826;28;20033;-37
2021/12/06 09:51:13;;;;;;;0.68;0.60;;;;;;;;;;5052881;28;20021;-37
2021/12/06 09:53:40;;;;;;;0.90;0.82;;;;;;;;;;5052895;28;20025;-38
2021/12/06 09:56:07;;;;;;;0.73;0.43;;;;;;;;;;5052746;28;20028;-37
2021/12/06 09:58:33;;;;;;;0.73;0.73;;;;;;;;;;5052830;28;20028;-37
2021/12/06 10:01:02;;;;;;;1.10;0.80;;;;;;;;;;5052502;28;20028;-39
2021/12/06 10:03:29;;;;;;;2.13;1.13;;;;;;;;;;5052719;28;20418;-37
2021/12/06 10:06:01;;;;;;;0.73;0.60;;;;;;;;;;5052451;28;20559;-37
2021/12/06 10:08:28;;;;;;;0.63;0.57;;;;;;;;;;5052371;28;20029;-37
2021/12/06 10:10:53;;;;;;;1.58;0.60;;;;;;;;;;5052339;28;20467;-37
2021/12/06 10:13:19;;;;;;;1.83;0.80;;;;;;;;;;5052349;28;20120;-37
2021/12/06 10:15:46;;;;;;;7.18;0.65;;;;;;;;;;5052475;28;20020;-37
2021/12/06 10:18:16;;;;;;;0.82;0.82;;;;;;;;;;5052198;28;20033;-36
2021/12/06 10:20:43;;;;;;;1.00;0.75;;;;;;;;;;5050781;28;20388;-37
2021/12/06 10:23:09;;;;;;;0.30;0.30;;;;;;;;;;5052329;28;20033;-37
2021/12/06 10:25:39;;;;;;;2.35;0.88;;;;;;;;;;5052091;28;20017;-37
2021/12/06 10:28:06;;;;;;;1.05;0.98;;;;;;;;;;5052034;28;20391;-37
2021/12/06 10:30:36;;;;;;;2.08;0.73;;;;;;;;;;5052124;28;20024;-37
2021/12/06 10:33:03;;;;;;;0.82;0.43;;;;;;;;;;5052036;28;20087;-37
2021/12/06 10:35:28;;;;;;;2.78;0.90;;;;;;;;;;5051826;28;20375;-37
2021/12/06 10:37:55;;;;;;;0.52;0.50;;;;;;;;;;5051788;28;20033;-37
2021/12/06 10:40:22;;;;;;;0.80;0.80;;;;;;;;;;5052011;28;20103;-37
2021/12/06 10:42:49;;;;;;;3.10;0.52;;;;;;;;;;5051978;28;20070;-37
2021/12/06 10:45:19;;;;;;;1.10;0.95;;;;;;;;;;5051755;28;20020;-36
2021/12/06 10:48:03;;;;;;;0.40;0.40;;;;;;;;;;5051823;28;20434;-37
2021/12/06 10:50:29;;;;;;;0.85;0.60;;;;;;;;;;5051617;28;20040;-37
2021/12/06 10:52:56;;;;;;;0.50;0.50;;;;;;;;;;5051970;28;20029;-37
2021/12/06 10:55:23;;;;;;;0.40;0.40;;;;;;;;;;5051795;28;20033;-37
2021/12/06 10:57:50;;;;;;;1.15;0.47;;;;;;;;;;5051863;28;20082;-37
2021/12/06 11:00:29;;;;;;;0.50;0.50;;;;;;;;;;5051520;28;20391;-37
2021/12/06 11:02:54;;;;;;;0.50;0.50;;;;;;;;;;5051509;28;20396;-37
2021/12/06 11:05:21;;;;;;;0.57;0.47;;;;;;;;;;5051345;28;20029;-37
2021/12/06 11:07:46;;;;;;;0.60;0.60;;;;;;;;;;5051730;28;20040;-37
2021/12/06 11:10:12;;;;;;;0.75;0.65;;;;;;;;;;5051322;28;20372;-37
2021/12/06 11:12:37;;;;;;;0.40;0.40;;;;;;;;;;5051559;28;20056;-37
2021/12/06 11:15:11;;;;;;;0.52;0.40;;;;;;;;;;5051693;28;20017;-38
2021/12/06 11:17:37;;;;;;;0.60;0.50;;;;;;;;;;5051518;28;20056;-37
2021/12/06 11:20:03;;;;;;;0.40;0.40;;;;;;;;;;5051232;28;20467;-37
2021/12/06 11:22:29;;;;;;;0.60;0.60;;;;;;;;;;5051086;28;20047;-37
2021/12/06 11:24:55;;;;;;;1.17;0.40;;;;;;;;;;5051473;28;20112;-37
2021/12/06 11:27:29;;;;;;;3.80;0.50;;;;;;;;;;5051100;28;20120;-37
2021/12/06 11:29:57;;;;;;;1.92;0.95;;;;;;;;;;5051154;28;20059;-37
2021/12/06 11:32:31;;;;;;;0.35;0.35;;;;;;;;;;5051374;28;20023;-37
2021/12/06 11:34:59;;;;;;;0.65;0.60;;;;;;;;;;5051383;28;20033;-38
2021/12/06 11:37:25;;;;;;;0.30;0.30;;;;;;;;;;5051298;28;20021;-37
2021/12/06 11:40:05;;;;;;;0.55;0.52;;;;;;;;;;5050928;28;20071;-37
2021/12/06 11:42:32;;;;;;;0.40;0.40;;;;;;;;;;5049732;28;20094;-37
2021/12/06 11:44:58;;;;;;;0.80;0.50;;;;;;;;;;5049919;28;20029;-37
2021/12/06 11:47:24;;;;;;;0.57;0.45;;;;;;;;;;5050910;28;20028;-37
2021/12/06 11:49:50;;;;;;;0.47;0.45;;;;;;;;;;5051263;28;20029;-37
2021/12/06 11:52:18;;;;;;;0.45;0.45;;;;;;;;;;5051298;28;20035;-38
2021/12/06 11:54:47;;;;;;;1.27;1.02;;;;;;;;;;5049936;28;20021;-37
2021/12/06 11:57:21;;;;;;;0.55;0.50;;;;;;;;;;5051021;28;20501;-37
2021/12/06 11:59:58;;;;;;;0.45;0.45;;;;;;;;;;5054924;28;20464;-37
2021/12/06 12:02:36;;;;;;;0.40;0.40;;;;;;;;;;5054626;28;20047;-37
2021/12/06 12:05:13;;;;;;;0.57;0.30;;;;;;;;;;5054761;28;20559;-37
2021/12/06 12:07:52;;;;;;;0.40;0.32;;;;;;;;;;5054669;28;20029;-37
2021/12/06 12:10:32;;;;;;;0.30;0.30;;;;;;;;;;5054655;28;20055;-37
2021/12/06 12:12:58;;;;;;;0.20;0.20;;;;;;;;;;5054657;28;20117;-37
2021/12/06 12:15:24;;;;;;;0.38;0.38;;;;;;;;;;5054378;28;20060;-37
2021/12/06 12:17:51;;;;;;;2.13;0.40;;;;;;;;;;5054861;28;20040;-38
2021/12/06 12:20:22;;;;;;;0.35;0.30;;;;;;;;;;5054468;28;20122;-37
2021/12/06 12:22:50;;;;;;;0.73;0.73;;;;;;;;;;5054623;28;20098;-37
2021/12/06 12:25:24;;;;;;;0.70;0.40;;;;;;;;;;5054402;28;20491;-36
2021/12/06 12:28:17;;;;;;;0.43;0.40;;;;;;;;;;5053101;28;20047;-36
2021/12/06 12:30:43;;;;;;;0.40;0.40;;;;;;;;;;5054275;28;20059;-36
2021/12/06 12:33:09;;;;;;;8.18;0.55;;;;;;;;;;5054296;28;20448;-37
2021/12/06 12:35:37;;;;;;;0.40;0.40;;;;;;;;;;5054114;28;20025;-37
2021/12/06 12:38:04;;;;;;;0.30;0.30;;;;;;;;;;5053929;28;20037;-38
2021/12/06 12:40:42;;;;;;;0.20;0.20;;;;;;;;;;5054408;28;20033;-37
2021/12/06 12:43:10;;;;;;;0.40;0.40;;;;;;;;;;5054075;28;20045;-36
2021/12/06 12:45:38;;;;;;;1.00;0.35;;;;;;;;;;5054189;28;20017;-37
2021/12/06 12:48:03;;;;;;;0.28;0.28;;;;;;;;;;5053811;28;20035;-37
2021/12/06 12:50:32;;;;;;;0.20;0.20;;;;;;;;;;5053830;28;20021;-37
2021/12/06 12:53:05;;;;;;;0.77;0.47;;;;;;;;;;5053924;28;20029;-36
2021/12/06 12:55:32;;;;;;;0.20;0.20;;;;;;;;;;5053977;28;20037;-37
2021/12/06 12:58:07;;;;;;;1.45;0.45;;;;;;;;;;5053767;28;20020;-37
2021/12/06 13:00:33;;;;;;;0.20;0.20;;;;;;;;;;5053532;28;20036;-37
2021/12/06 13:02:58;;;;;;;0.20;0.20;;;;;;;;;;5053669;28;20037;-36
2021/12/06 13:05:26;;;;;;;0.30;0.30;;;;;;;;;;5053508;28;20101;-37
2021/12/06 13:08:03;;;;;;;1.30;0.40;;;;;;;;;;5053662;28;20452;-37
2021/12/06 13:10:30;;;;;;;0.20;0.20;;;;;;;;;;5053711;28;20036;-37
2021/12/06 13:13:02;;;;;;;0.30;0.30;;;;;;;;;;5053707;28;20021;-37
2021/12/06 13:15:47;;;;;;;0.60;0.60;;;;;;;;;;5053540;28;20138;-37
2021/12/06 13:18:30;;;;;;;0.30;0.30;;;;;;;;;;5053739;28;20037;-37
2021/12/06 13:20:57;;;;;;;0.30;0.30;;;;;;;;;;5053584;28;20060;-37
2021/12/06 13:23:26;;;;;;;0.20;0.20;;;;;;;;;;5053199;28;20479;-37
2021/12/06 13:26:08;;;;;;;0.30;0.30;;;;;;;;;;5053249;28;20452;-37
2021/12/06 13:28:52;;;;;;;0.43;0.25;;;;;;;;;;5053372;28;20385;-37
2021/12/06 13:31:25;;;;;;;0.38;0.38;;;;;;;;;;5053184;28;20170;-37
2021/12/06 13:33:51;;;;;;;0.28;0.28;;;;;;;;;;5053020;28;20045;-37
2021/12/06 13:36:36;;;;;;;0.22;0.22;;;;;;;;;;5053118;28;20031;-37
2021/12/06 13:39:02;;;;;;;0.20;0.20;;;;;;;;;;5053018;28;20106;-37
2021/12/06 13:41:29;;;;;;;0.25;0.25;;;;;;;;;;5052844;28;20112;-37
2021/12/06 13:44:11;;;;;;;0.47;0.38;;;;;;;;;;5052997;28;20041;-37
2021/12/06 13:46:38;;;;;;;1.92;0.30;;;;;;;;;;5052856;28;20048;-37
2021/12/06 13:49:03;;;;;;;0.28;0.28;;;;;;;;;;5052765;28;20410;-37
2021/12/06 13:51:29;;;;;;;0.20;0.20;;;;;;;;;;5053080;28;20036;-37
2021/12/06 13:54:30;;;;;;;0.30;0.25;;;;;;;;;;5052741;28;20071;-37
2021/12/06 13:56:57;;;;;;;0.30;0.30;;;;;;;;;;5030331;28;20480;-37
2021/12/06 13:59:25;;;;;;;0.32;0.32;;;;;;;;;;5048264;28;20033;-37
2021/12/06 14:01:51;;;;;;;0.22;0.22;;;;;;;;;;5052763;28;20523;-37
2021/12/06 14:04:21;;;;;;;0.30;0.30;;;;;;;;;;5052576;28;20021;-37
2021/12/06 14:06:49;;;;;;;0.25;0.25;;;;;;;;;;5052543;28;20059;-37
2021/12/06 14:09:14;;;;;;;0.30;0.30;;;;;;;;;;5052358;28;20104;-40
2021/12/06 14:11:40;;;;;;;0.50;0.50;;;;;;;;;;5052361;28;20116;-37
2021/12/06 14:14:10;;;;;;;2.72;0.30;;;;;;;;;;5052365;28;20033;-41
2021/12/06 14:16:36;;;;;;;0.30;0.28;;;;;;;;;;5052450;28;20520;-37
2021/12/06 14:19:02;;;;;;;4.38;1.10;;;;;;;;;;5052250;28;20049;-37
2021/12/06 14:21:27;;;;;;;0.30;0.30;;;;;;;;;;5051878;28;20068;-37
2021/12/06 14:23:53;;;;;;;0.22;0.22;;;;;;;;;;5052121;28;20533;-36
2021/12/06 14:26:18;;;;;;;0.65;0.55;;;;;;;;;;5052206;28;20057;-37
2021/12/06 14:28:45;;;;;;;6.75;0.50;;;;;;;;;;5051963;28;20063;-37
2021/12/06 14:31:11;;;;;;;0.60;0.60;;;;;;;;;;5052088;28;20079;-37
2021/12/06 14:33:36;;;;;;;0.30;0.30;;;;;;;;;;5051850;28;20380;-37
2021/12/06 14:36:04;;;;;;;0.20;0.20;;;;;;;;;;5051998;28;20025;-37
2021/12/06 14:38:30;;;;;;;0.30;0.30;;;;;;;;;;5051794;28;20052;-37
2021/12/06 14:40:57;;;;;;;0.77;0.50;;;;;;;;;;5051971;28;20032;-38
2021/12/06 14:43:24;;;;;;;0.38;0.38;;;;;;;;;;5051704;28;20087;-37
2021/12/06 14:45:49;;;;;;;0.35;0.20;;;;;;;;;;5051737;28;20028;-37
2021/12/06 14:48:19;;;;;;;0.30;0.30;;;;;;;;;;5051647;28;20095;-37
2021/12/06 14:51:02;;;;;;;0.32;0.30;;;;;;;;;;5051702;28;20028;-37
2021/12/06 14:53:38;;;;;;;1.40;0.60;;;;;;;;;;5051825;28;20037;-37
2021/12/06 14:58:40;;;;;;;0.30;0.30;;;;;;;;;;5051699;28;20040;-37
2021/12/06 15:01:13;;;;;;;0.17;0.17;;;;;;;;;;5051523;28;20025;-37